Time;durP1;ratioP1;P1;durP2;ratioP2;P2;SDS_P1;SDS_P2;PMS_P1;PMS_P2;Temp;Humidity;BMP_temperature;BMP_pressure;BME280_temperature;BME280_humidity;BME280_pressure;Samples;Min_cycle;Max_cycle;Signal;HPM_P1;HPM_P2
2022/04/28 00:01:16;;;;;;;12.68;4.47;;;;;;;9.04;65.22;102782.00;5132257;27;20055;-51
2022/04/28 00:03:43;;;;;;;10.43;3.90;;;;;;;9.08;65.25;102776.97;5115905;28;20050;-51
2022/04/28 00:06:11;;;;;;;11.70;4.30;;;;;;;9.09;64.74;102774.06;5116931;27;20547;-48
2022/04/28 00:08:39;;;;;;;10.45;4.20;;;;;;;9.08;65.01;102783.25;5116176;28;20059;-47
2022/04/28 00:11:08;;;;;;;12.88;4.40;;;;;;;9.09;64.79;102778.66;5116634;28;20044;-48
2022/04/28 00:13:36;;;;;;;12.35;4.25;;;;;;;9.04;65.08;102787.44;5115471;28;20111;-49
2022/04/28 00:16:04;;;;;;;13.57;4.40;;;;;;;8.98;65.49;102787.44;5115228;28;20043;-47
2022/04/28 00:18:31;;;;;;;9.50;4.15;;;;;;;8.84;66.09;102792.03;5116632;28;20066;-47
2022/04/28 00:20:59;;;;;;;12.98;4.47;;;;;;;8.68;66.27;102793.25;5114775;28;20520;-48
2022/04/28 00:23:26;;;;;;;12.75;4.30;;;;;;;8.70;66.80;102796.63;5116359;28;20048;-47
2022/04/28 00:25:54;;;;;;;14.38;4.50;;;;;;;8.77;66.12;102792.03;5115117;28;20500;-48
2022/04/28 00:28:22;;;;;;;12.65;4.43;;;;;;;8.88;66.46;102788.69;5113031;28;20047;-47
2022/04/28 00:30:49;;;;;;;10.95;4.43;;;;;;;8.90;65.78;102792.06;5116305;28;20390;-47
2022/04/28 00:33:17;;;;;;;11.60;3.83;;;;;;;8.93;65.97;102790.78;5118329;27;20096;-47
2022/04/28 00:35:45;;;;;;;12.40;4.40;;;;;;;8.88;65.44;102787.88;5116055;28;20040;-49
2022/04/28 00:38:14;;;;;;;12.68;4.47;;;;;;;8.86;66.10;102790.78;5116204;28;20432;-47
2022/04/28 00:40:41;;;;;;;11.93;4.40;;;;;;;8.90;65.91;102783.91;5115385;28;20168;-48
2022/04/28 00:43:18;;;;;;;11.15;4.47;;;;;;;8.91;65.60;102785.56;5124240;27;20504;-49
2022/04/28 00:45:50;;;;;;;13.93;4.32;;;;;;;8.90;65.90;102785.78;5119872;27;20048;-50
2022/04/28 00:51:05;;;;;;;11.93;4.38;;;;;;;8.80;65.99;102786.16;5114287;28;20126;-42
2022/04/28 00:53:46;;;;;;;11.13;4.10;;;;;;;8.81;66.09;102793.28;5116240;27;20151;-49
2022/04/28 00:56:14;;;;;;;10.02;3.80;;;;;;;8.79;65.83;102789.94;5112185;28;20096;-49
2022/04/28 00:58:42;;;;;;;11.90;4.57;;;;;;;8.72;65.91;102789.09;5114021;28;20047;-48
2022/04/28 01:01:09;;;;;;;16.23;5.35;;;;;;;8.72;66.31;102786.38;5115507;27;20138;-48
2022/04/28 01:03:37;;;;;;;14.27;4.90;;;;;;;8.69;66.62;102784.91;5113135;28;20051;-47
2022/04/28 01:06:05;;;;;;;9.45;4.20;;;;;;;8.73;66.51;102785.31;5114420;28;20088;-48
2022/04/28 01:08:33;;;;;;;13.07;4.65;;;;;;;8.65;66.19;102788.25;5114397;28;20035;-48
2022/04/28 01:11:02;;;;;;;13.73;4.75;;;;;;;8.59;66.71;102787.19;5113882;28;20044;-50
2022/04/28 01:13:32;;;;;;;15.45;4.55;;;;;;;8.53;66.54;102783.41;5112784;28;20066;-47
2022/04/28 01:16:13;;;;;;;11.27;4.57;;;;;;;8.56;67.25;102782.16;5114902;28;20039;-47
2022/04/28 01:18:41;;;;;;;14.50;4.30;;;;;;;8.58;66.52;102790.13;5113955;28;20031;-49
2022/04/28 01:21:09;;;;;;;10.15;4.78;;;;;;;8.55;67.09;102788.66;5115121;27;20043;-52
2022/04/28 01:23:38;;;;;;;15.77;5.50;;;;;;;8.53;66.67;102786.13;5096651;28;20043;-51
2022/04/28 01:26:07;;;;;;;15.77;4.85;;;;;;;8.53;66.89;102794.28;5113982;28;20078;-48
2022/04/28 01:28:35;;;;;;;12.57;5.13;;;;;;;8.56;66.56;102789.47;5113401;28;20050;-50
2022/04/28 01:31:06;;;;;;;14.50;4.05;;;;;;;8.49;66.64;102787.59;5114089;28;20118;-49
2022/04/28 01:33:42;;;;;;;14.55;4.38;;;;;;;8.42;67.67;102786.75;5113062;28;20611;-51
2022/04/28 01:36:13;;;;;;;16.08;4.88;;;;;;;8.43;67.67;102796.56;5115352;27;20090;-48
2022/04/28 01:38:41;;;;;;;14.63;4.30;;;;;;;8.45;67.35;102791.75;5134253;27;20035;-49
2022/04/28 01:41:09;;;;;;;14.10;4.80;;;;;;;8.40;67.23;102793.44;5133996;27;20066;-49
2022/04/28 01:43:37;;;;;;;12.52;4.68;;;;;;;8.34;67.31;102792.31;5112250;28;20042;-49
2022/04/28 01:46:04;;;;;;;12.23;4.63;;;;;;;8.25;68.29;102793.53;5114835;28;20050;-47
2022/04/28 01:48:47;;;;;;;13.70;4.47;;;;;;;8.16;68.27;102797.50;5114165;28;20035;-49
2022/04/28 01:54:59;;;;;;;14.50;4.78;;;;;;;8.08;68.99;102787.63;5094002;28;20485;-42
2022/04/28 01:57:47;;;;;;;13.93;5.10;;;;;;;8.06;69.40;102790.56;5093529;28;20044;-49
2022/04/28 02:00:42;;;;;;;12.25;4.72;;;;;;;7.92;68.93;102788.00;5110284;28;20114;-46
2022/04/28 02:03:12;;;;;;;14.38;4.22;;;;;;;7.78;70.00;102784.38;5122103;27;20493;-48
2022/04/28 02:05:41;;;;;;;11.88;4.72;;;;;;;7.80;70.57;102787.72;5113246;28;20460;-47
2022/04/28 02:08:09;;;;;;;13.95;5.15;;;;;;;7.89;69.47;102786.53;5112808;28;20050;-47
2022/04/28 02:10:37;;;;;;;12.60;5.00;;;;;;;7.90;70.07;102783.59;5114633;27;20031;-46
2022/04/28 02:13:11;;;;;;;13.48;5.20;;;;;;;7.94;69.93;102794.91;5102687;28;20064;-47
2022/04/28 02:15:42;;;;;;;13.68;5.00;;;;;;;7.99;68.83;102792.41;5097023;28;20488;-49
2022/04/28 02:18:32;;;;;;;12.98;4.97;;;;;;;8.02;69.34;102794.72;5093874;28;20043;-47
2022/04/28 02:21:00;;;;;;;11.80;4.28;;;;;;;8.03;69.22;102790.97;5113982;28;20342;-47
2022/04/28 02:23:28;;;;;;;12.95;4.88;;;;;;;8.00;68.87;102802.22;5112569;28;20036;-48
2022/04/28 02:25:56;;;;;;;12.43;4.90;;;;;;;7.98;69.45;102796.16;5111979;28;20521;-49
2022/04/28 02:28:24;;;;;;;13.82;4.60;;;;;;;8.02;69.26;102793.88;5112761;28;20405;-51
2022/04/28 02:30:52;;;;;;;11.63;5.10;;;;;;;8.07;68.68;102797.66;5112351;28;20051;-48
2022/04/28 02:33:19;;;;;;;13.93;5.32;;;;;;;7.93;69.26;102795.91;5112359;28;20400;-48
2022/04/28 02:36:16;;;;;;;13.43;5.00;;;;;;;7.90;69.42;102796.34;5099521;28;20050;-49
2022/04/28 02:38:44;;;;;;;11.63;5.10;;;;;;;7.94;69.72;102792.19;5114657;27;20084;-47
2022/04/28 02:41:12;;;;;;;15.77;5.05;;;;;;;7.84;70.19;102797.13;5112841;28;20047;-48
2022/04/28 02:43:40;;;;;;;11.60;4.60;;;;;;;7.83;70.22;102795.47;5113146;28;20065;-50
2022/04/28 02:46:17;;;;;;;12.63;4.93;;;;;;;7.87;69.50;102791.31;5112041;28;20065;-48
2022/04/28 02:49:09;;;;;;;15.90;4.85;;;;;;;7.84;69.21;102798.00;5099330;28;20055;-49
2022/04/28 02:51:38;;;;;;;12.68;5.18;;;;;;;7.70;70.42;102790.81;5112269;28;20047;-49
2022/04/28 02:54:08;;;;;;;15.00;5.47;;;;;;;7.58;71.18;102793.25;5094887;28;20044;-50
2022/04/28 02:56:41;;;;;;;13.80;5.38;;;;;;;7.59;71.02;102794.06;5112804;28;20445;-50
2022/04/28 02:59:09;;;;;;;13.60;5.30;;;;;;;7.60;71.33;102793.88;5112332;28;20465;-51
2022/04/28 03:01:37;;;;;;;11.85;5.30;;;;;;;7.51;71.30;102791.53;5111643;28;20147;-50
2022/04/28 03:04:06;;;;;;;14.25;5.90;;;;;;;7.42;71.57;102793.56;5112237;28;20139;-49
2022/04/28 03:12:09;;;;;;;10.38;4.70;;;;;;;7.51;70.76;102792.38;5111925;28;20036;-47
2022/04/28 03:14:41;;;;;;;12.40;5.80;;;;;;;7.52;70.82;102799.44;5112664;28;20043;-48
2022/04/28 03:17:08;;;;;;;14.00;5.38;;;;;;;7.59;71.05;102794.91;5112568;28;20158;-48
2022/04/28 03:19:36;;;;;;;14.32;5.55;;;;;;;7.59;70.33;102789.47;5112365;28;20101;-46
2022/04/28 03:22:04;;;;;;;12.18;5.13;;;;;;;7.54;70.62;102791.13;5101711;28;20032;-48
2022/04/28 03:24:32;;;;;;;12.95;5.28;;;;;;;7.54;70.87;102796.56;5113494;28;20039;-49
2022/04/28 03:27:00;;;;;;;17.45;5.60;;;;;;;7.47;71.18;102791.91;5115567;28;20489;-48
2022/04/28 03:29:27;;;;;;;16.77;5.38;;;;;;;7.47;71.24;102799.22;5111446;28;20130;-49
2022/04/28 03:31:55;;;;;;;12.50;5.10;;;;;;;7.47;70.56;102791.91;5095542;28;20050;-51
2022/04/28 03:34:43;;;;;;;15.85;5.28;;;;;;;7.42;70.85;102796.25;5111825;28;20063;-47
2022/04/28 03:37:10;;;;;;;13.55;5.45;;;;;;;7.41;71.32;102791.88;5112274;28;20168;-50
2022/04/28 03:39:41;;;;;;;12.70;4.88;;;;;;;7.50;70.97;102792.56;5111389;28;20051;-51
2022/04/28 03:42:09;;;;;;;15.48;5.25;;;;;;;7.51;71.14;102797.78;5096391;28;20036;-49
2022/04/28 03:44:37;;;;;;;12.95;5.10;;;;;;;7.41;71.08;102791.88;5111919;28;20032;-49
2022/04/28 03:47:07;;;;;;;11.30;5.13;;;;;;;7.28;71.88;102805.34;5111805;28;20447;-48
2022/04/28 03:49:35;;;;;;;12.57;4.88;;;;;;;7.31;72.07;102796.81;5111016;28;20379;-47
2022/04/28 03:52:06;;;;;;;14.57;5.35;;;;;;;7.32;72.46;102795.78;5112464;28;20044;-48
2022/04/28 03:54:34;;;;;;;12.70;5.47;;;;;;;7.28;71.80;102791.78;5111562;28;20051;-47
2022/04/28 03:57:03;;;;;;;15.07;5.03;;;;;;;7.23;72.01;102797.78;5112003;28;20039;-50
2022/04/28 03:59:32;;;;;;;12.65;4.88;;;;;;;7.12;72.18;102799.19;5112606;28;20042;-50
2022/04/28 04:02:29;;;;;;;14.52;5.18;;;;;;;7.18;72.67;102798.38;5101716;28;20529;-50
2022/04/28 04:04:58;;;;;;;15.30;5.82;;;;;;;7.18;73.06;102803.81;5114440;28;20044;-50
2022/04/28 04:07:38;;;;;;;21.95;5.85;;;;;;;7.24;72.90;102802.19;5097727;28;20395;-48
2022/04/28 04:10:28;;;;;;;12.40;5.20;;;;;;;7.29;72.14;102807.00;5114239;28;20123;-49
2022/04/28 04:12:59;;;;;;;17.05;5.15;;;;;;;7.35;72.74;102808.94;5114670;28;20430;-49
2022/04/28 04:15:27;;;;;;;13.40;5.88;;;;;;;7.39;72.18;102811.06;5116351;28;20039;-48
2022/04/28 04:18:04;;;;;;;13.80;5.15;;;;;;;7.39;71.85;102815.66;5114908;28;20516;-48
2022/04/28 04:20:46;;;;;;;13.70;5.30;;;;;;;7.28;72.36;102808.06;5131688;27;20039;-50
2022/04/28 04:23:14;;;;;;;15.70;5.68;;;;;;;7.19;72.62;102812.75;5118233;27;20489;-49
2022/04/28 04:25:42;;;;;;;16.10;6.10;;;;;;;7.17;72.67;102807.56;5115741;28;20043;-50
2022/04/28 04:28:16;;;;;;;14.50;6.05;;;;;;;7.14;73.24;102816.06;5115211;28;20481;-49
2022/04/28 04:34:05;;;;;;;17.98;5.47;;;;;;;7.15;73.81;102820.47;5094548;28;20040;-44
2022/04/28 04:36:33;;;;;;;15.45;5.20;;;;;;;7.12;73.48;102815.44;5111741;28;20812;-46
2022/04/28 04:39:01;;;;;;;18.58;6.30;;;;;;;7.10;73.44;102822.09;5098137;28;20044;-45
2022/04/28 04:41:34;;;;;;;13.93;5.50;;;;;;;7.08;73.79;102825.00;5114899;28;20402;-49
2022/04/28 04:44:04;;;;;;;12.10;5.25;;;;;;;7.07;73.98;102819.75;5114542;28;20078;-46
2022/04/28 04:46:32;;;;;;;16.92;6.40;;;;;;;7.08;74.49;102825.00;5105130;28;20155;-48
2022/04/28 04:49:18;;;;;;;;;;;;;;;7.10;73.57;102822.09;5115833;28;20501;-45
2022/04/28 04:51:53;;;;;;;17.13;5.20;;;;;;;6.98;74.49;102825.31;5098884;28;20342;-47
2022/04/28 04:54:22;;;;;;;12.70;5.43;;;;;;;6.96;74.91;102832.81;5114407;28;20119;-42
2022/04/28 04:56:51;;;;;;;14.93;5.68;;;;;;;6.97;75.29;102836.34;5112794;28;20045;-46
2022/04/28 04:59:19;;;;;;;16.52;6.80;;;;;;;6.88;75.59;102843.78;5130197;27;20071;-43
2022/04/28 05:01:47;;;;;;;16.17;6.53;;;;;;;6.68;76.10;102846.28;5126825;27;20052;-43
2022/04/28 05:04:33;;;;;;;13.93;6.32;;;;;;;6.74;77.26;102844.69;5115420;28;20119;-44
2022/04/28 05:07:39;;;;;;;15.23;6.45;;;;;;;6.90;76.42;102844.41;5099790;28;20040;-48
2022/04/28 05:10:07;;;;;;;14.00;6.63;;;;;;;6.97;76.27;102860.75;5112532;28;20485;-48
2022/04/28 05:12:35;;;;;;;12.95;6.18;;;;;;;6.91;76.27;102854.25;5114198;28;20063;-49
2022/04/28 05:15:22;;;;;;;26.45;6.78;;;;;;;6.99;76.61;102854.09;5114047;28;20036;-48
2022/04/28 05:18:04;;;;;;;21.00;7.03;;;;;;;7.04;75.98;102856.22;5106543;27;20397;-51
2022/04/28 05:20:50;;;;;;;16.50;7.00;;;;;;;7.02;75.87;102863.72;5134739;27;20051;-49
2022/04/28 05:23:35;;;;;;;15.60;6.40;;;;;;;6.99;76.16;102858.69;5094761;28;20036;-47
2022/04/28 05:26:38;;;;;;;18.75;7.50;;;;;;;6.98;76.93;102859.72;5096549;28;20051;-49
2022/04/28 05:29:26;;;;;;;16.98;7.22;;;;;;;7.01;77.15;102864.75;5112134;28;20096;-50
2022/04/28 05:32:12;;;;;;;;;;;;;;;7.00;76.89;102872.06;5114089;28;20039;-47
2022/04/28 05:35:02;;;;;;;17.25;7.05;;;;;;;6.93;77.45;102867.59;5112985;28;20373;-48
2022/04/28 05:37:30;;;;;;;16.63;6.80;;;;;;;6.99;77.69;102877.66;5113837;28;20443;-48
2022/04/28 05:39:58;;;;;;;15.40;7.05;;;;;;;7.05;77.48;102874.19;4408258;27;10000161;-49
2022/04/28 05:45:41;;;;;;;19.05;6.85;;;;;;;7.17;76.72;102878.03;5110238;28;20035;-49
2022/04/28 05:47:59;;;;;;;16.98;7.47;;;;;;;7.27;77.07;102885.03;5095525;28;20835;-51
2022/04/28 05:50:34;;;;;;;17.98;7.45;;;;;;;7.16;77.33;102881.78;5109216;28;20501;-51
2022/04/28 05:53:02;;;;;;;18.33;7.25;;;;;;;7.15;77.02;102885.53;5109559;28;20440;-51
2022/04/28 05:55:30;;;;;;;21.30;8.63;;;;;;;7.22;76.86;102889.16;5110054;28;20048;-47
2022/04/28 05:57:59;;;;;;;16.45;7.53;;;;;;;7.29;76.89;102897.34;5111214;27;20044;-51
2022/04/28 06:00:28;;;;;;;19.27;7.68;;;;;;;7.35;77.05;102899.25;5099920;28;20490;-53
2022/04/28 06:02:56;;;;;;;16.88;7.85;;;;;;;7.39;76.54;102891.59;5093070;28;20070;-51
2022/04/28 06:05:29;;;;;;;19.70;7.88;;;;;;;7.41;76.68;102894.94;5109513;28;20043;-49
2022/04/28 06:07:56;;;;;;;17.25;7.40;;;;;;;7.43;76.16;102898.28;5092762;28;20058;-48
2022/04/28 06:10:24;;;;;;;22.30;7.93;;;;;;;7.45;76.40;102904.34;5109068;28;20046;-50
2022/04/28 06:12:56;;;;;;;15.93;7.40;;;;;;;7.47;76.67;102910.41;5105779;27;20062;-49
2022/04/28 06:15:27;;;;;;;18.00;8.52;;;;;;;7.45;76.77;102907.06;5131588;27;20054;-49
2022/04/28 06:18:18;;;;;;;19.65;8.77;;;;;;;7.47;77.30;102907.72;5113331;27;20027;-52
2022/04/28 06:20:47;;;;;;;19.85;9.10;;;;;;;7.52;76.70;102910.66;5109534;28;20069;-52
2022/04/28 06:23:35;;;;;;;19.45;8.50;;;;;;;7.57;76.52;102916.34;5110157;28;20061;-52
2022/04/28 06:26:05;;;;;;;19.70;8.55;;;;;;;7.61;76.31;102923.06;5109918;28;20044;-52
2022/04/28 06:28:33;;;;;;;24.40;8.50;;;;;;;7.67;76.80;102925.00;5092481;28;20036;-49
2022/04/28 06:31:01;;;;;;;18.52;8.20;;;;;;;7.77;76.82;102929.22;5108686;28;20044;-47
2022/04/28 06:33:48;;;;;;;14.15;6.80;;;;;;;7.80;75.36;102931.56;5110880;28;20120;-51
2022/04/28 06:36:29;;;;;;;18.33;7.95;;;;;;;7.85;75.25;102931.81;5109353;28;20050;-48
2022/04/28 06:38:58;;;;;;;17.38;6.95;;;;;;;7.87;75.81;102933.28;5080518;28;20040;-49
2022/04/28 06:41:26;;;;;;;18.95;8.07;;;;;;;7.93;76.11;102931.63;5101447;28;20039;-49
2022/04/28 06:43:58;;;;;;;16.55;7.47;;;;;;;8.01;75.04;102923.38;5112280;28;20035;-48
2022/04/28 06:46:26;;;;;;;19.65;8.35;;;;;;;8.05;74.95;102934.66;5112942;28;20047;-48
2022/04/28 06:49:12;;;;;;;17.02;6.93;;;;;;;8.09;74.47;102936.75;5120008;28;20043;-47
2022/04/28 06:51:58;;;;;;;18.33;7.35;;;;;;;8.13;74.73;102931.78;5113491;28;20036;-51
2022/04/28 06:55:02;;;;;;;20.70;8.93;;;;;;;8.18;74.26;102939.31;5092598;28;20032;-51
2022/04/28 06:57:33;;;;;;;21.52;7.85;;;;;;;8.24;74.53;102941.25;5113075;28;20482;-51
2022/04/28 07:00:12;;;;;;;18.35;8.07;;;;;;;8.33;73.40;102948.19;5081244;28;20040;-48
2022/04/28 07:02:47;;;;;;;19.50;8.35;;;;;;;8.31;74.02;102940.22;5108964;28;20059;-49
2022/04/28 07:05:15;;;;;;;14.55;6.00;;;;;;;8.36;73.38;102947.78;5081202;28;20075;-50
2022/04/28 07:07:42;;;;;;;16.65;6.25;;;;;;;8.38;72.86;102950.31;5113278;28;20048;-50
2022/04/28 07:10:10;;;;;;;18.80;7.75;;;;;;;8.39;73.38;102952.81;5111349;28;20070;-47
2022/04/28 07:12:42;;;;;;;21.42;7.40;;;;;;;8.41;72.74;102958.91;5096290;28;20067;-44
2022/04/28 07:15:28;;;;;;;;;;;;;;;8.41;73.44;102958.06;5113910;28;20472;-45
2022/04/28 07:18:16;;;;;;;18.80;6.90;;;;;;;8.45;73.59;102964.78;5112441;28;20390;-44
2022/04/28 07:20:47;;;;;;;18.60;6.63;;;;;;;8.49;72.37;102968.75;5079024;28;20048;-50
2022/04/28 07:23:15;;;;;;;18.52;6.78;;;;;;;8.53;72.25;102973.59;5113177;28;20490;-48
2022/04/28 07:25:43;;;;;;;19.33;6.57;;;;;;;8.60;72.34;102978.25;5112206;28;20078;-50
2022/04/28 07:28:11;;;;;;;18.52;6.50;;;;;;;8.64;71.92;102976.81;5112780;28;20175;-50
2022/04/28 07:31:02;;;;;;;18.38;6.28;;;;;;;8.68;71.11;102980.78;5055090;28;20562;-51
2022/04/28 07:33:56;;;;;;;18.45;7.38;;;;;;;8.70;71.50;102973.25;5070529;28;20104;-52
2022/04/28 07:36:42;;;;;;;16.35;6.70;;;;;;;8.74;71.48;102988.13;5097255;28;20048;-52
2022/04/28 07:39:28;;;;;;;16.20;7.07;;;;;;;8.77;70.40;102982.28;5103084;28;20184;-49
2022/04/28 07:42:16;;;;;;;18.35;7.13;;;;;;;8.83;70.59;102976.06;5129902;27;20072;-49
2022/04/28 07:44:47;;;;;;;17.05;6.60;;;;;;;8.85;70.24;102981.25;5136362;27;20485;-49
2022/04/28 07:47:14;;;;;;;18.83;6.90;;;;;;;8.83;70.42;102981.50;5125467;27;20074;-51
2022/04/28 07:49:55;;;;;;;15.98;7.18;;;;;;;8.83;70.30;102986.09;5115382;27;20048;-50
2022/04/28 07:52:22;;;;;;;16.27;6.20;;;;;;;8.89;70.38;102988.81;5136328;27;20031;-49
2022/04/28 07:54:51;;;;;;;23.65;7.20;;;;;;;8.96;70.06;102986.94;5136299;27;20051;-52
2022/04/28 07:57:23;;;;;;;23.15;6.53;;;;;;;9.00;69.36;102994.72;5108547;28;20039;-49
2022/04/28 07:59:51;;;;;;;21.83;7.18;;;;;;;9.03;68.88;102997.03;5107706;28;20131;-51
2022/04/28 08:02:20;;;;;;;18.05;6.30;;;;;;;9.06;68.72;102993.91;5115941;28;20079;-50
2022/04/28 08:04:52;;;;;;;15.15;5.78;;;;;;;9.11;69.04;102997.66;5115700;28;20439;-50
2022/04/28 08:07:22;;;;;;;15.32;6.00;;;;;;;9.18;68.62;102989.53;5117717;27;20077;-48
2022/04/28 08:09:53;;;;;;;24.60;11.23;;;;;;;9.28;68.61;102992.69;5125556;27;20065;-46
2022/04/28 08:12:23;;;;;;;30.92;10.23;;;;;;;9.36;68.25;102997.97;5098762;28;20089;-49
2022/04/28 08:15:40;;;;;;;17.65;6.50;;;;;;;9.34;67.34;103004.66;5102733;28;20047;-49
2022/04/28 08:18:08;;;;;;;16.83;5.97;;;;;;;9.34;67.73;103013.63;5097198;28;20040;-50
2022/04/28 08:20:40;;;;;;;17.10;5.80;;;;;;;9.38;67.69;103017.63;5115086;28;20032;-50
2022/04/28 08:23:08;;;;;;;22.20;11.75;;;;;;;9.43;67.44;103018.88;5115321;28;20039;-52
2022/04/28 08:25:37;;;;;;;16.95;6.85;;;;;;;9.46;67.26;103018.50;5114918;28;20088;-51
2022/04/28 08:28:05;;;;;;;17.45;7.10;;;;;;;9.47;67.34;103020.16;5097021;28;20158;-53
2022/04/28 08:30:33;;;;;;;15.23;5.97;;;;;;;9.52;66.95;103020.38;5114301;28;20036;-49
2022/04/28 08:33:04;;;;;;;14.88;5.63;;;;;;;9.54;66.53;103026.44;5116033;27;20058;-48
2022/04/28 08:35:32;;;;;;;15.73;5.70;;;;;;;9.56;66.61;103019.75;5114510;28;20051;-49
2022/04/28 08:37:59;;;;;;;16.48;5.65;;;;;;;9.56;65.93;103029.81;5113842;28;20050;-49
2022/04/28 08:40:27;;;;;;;16.50;5.60;;;;;;;9.58;66.21;103031.28;5119450;27;20031;-50
2022/04/28 08:43:03;;;;;;;17.77;5.88;;;;;;;9.60;65.37;103031.91;5135500;27;20066;-51
2022/04/28 08:48:59;;;;;;;14.52;5.70;;;;;;;9.61;65.45;103027.28;5100903;28;20051;-49
2022/04/28 08:51:28;;;;;;;16.73;5.15;;;;;;;9.65;65.31;103023.13;5097677;28;20062;-52
2022/04/28 08:54:02;;;;;;;20.67;6.88;;;;;;;9.70;65.17;103019.78;5098498;28;20054;-50
2022/04/28 08:56:32;;;;;;;18.63;7.55;;;;;;;9.80;64.54;103022.91;5110882;28;20492;-51
2022/04/28 08:59:04;;;;;;;13.25;5.07;;;;;;;9.81;64.18;103020.00;5098249;28;20126;-51
2022/04/28 09:01:32;;;;;;;14.15;5.20;;;;;;;9.87;64.60;103020.22;5114181;28;20132;-48
2022/04/28 09:04:19;;;;;;;15.45;4.90;;;;;;;9.94;63.15;103018.31;5115661;28;20052;-49
2022/04/28 09:06:55;;;;;;;14.88;5.30;;;;;;;9.94;62.78;103021.03;5098159;28;20047;-46
2022/04/28 09:09:41;;;;;;;15.55;4.97;;;;;;;9.94;63.07;103010.16;5112701;28;20039;-50
2022/04/28 09:12:27;;;;;;;17.38;5.43;;;;;;;9.97;62.98;103015.19;5100238;28;20047;-49
2022/04/28 09:15:15;;;;;;;15.55;5.05;;;;;;;10.03;63.26;103020.63;5114769;28;20048;-51
2022/04/28 09:18:00;;;;;;;12.27;4.63;;;;;;;10.12;63.31;103015.78;5098701;28;20042;-55
2022/04/28 09:20:27;;;;;;;12.75;4.85;;;;;;;10.20;61.97;103018.31;5113423;28;20450;-49
2022/04/28 09:23:09;;;;;;;17.48;5.63;;;;;;;10.21;62.20;103017.25;5114167;28;20043;-49
2022/04/28 09:25:43;;;;;;;17.25;6.47;;;;;;;10.22;61.01;103010.75;5097902;28;20497;-50
2022/04/28 09:28:13;;;;;;;16.98;5.43;;;;;;;10.21;61.86;103011.78;5112194;28;20050;-49
2022/04/28 09:30:49;;;;;;;15.68;5.43;;;;;;;10.25;61.92;103012.22;5113756;28;20085;-49
2022/04/28 09:33:33;;;;;;;16.48;4.82;;;;;;;10.29;61.73;103002.59;5115118;28;20036;-49
2022/04/28 09:36:10;;;;;;;14.93;4.95;;;;;;;10.39;61.04;103007.59;5113463;28;20035;-51
2022/04/28 09:38:56;;;;;;;;;;;;;;;10.48;60.24;103022.69;5112975;28;20469;-54
2022/04/28 09:44:25;;;;;;;15.27;6.35;;;;;;;10.49;59.96;103005.28;5113781;28;20082;-52
2022/04/28 09:47:00;;;;;;;15.77;6.45;;;;;;;10.53;59.10;103008.41;5097438;28;20031;-52
2022/04/28 09:49:29;;;;;;;13.77;5.35;;;;;;;10.53;59.10;103002.97;5113214;28;20043;-51
2022/04/28 09:52:15;;;;;;;14.75;6.25;;;;;;;10.49;58.52;103002.56;5112954;27;20035;-50
2022/04/28 09:55:18;;;;;;;15.85;5.80;;;;;;;10.45;59.44;103012.22;5028772;28;20044;-49
2022/04/28 09:58:12;;;;;;;19.67;5.95;;;;;;;10.47;59.46;103006.56;5095492;28;20548;-49
2022/04/28 10:00:40;;;;;;;13.52;5.53;;;;;;;10.58;59.45;103000.41;5112852;28;20088;-52
2022/04/28 10:03:11;;;;;;;15.30;5.32;;;;;;;10.69;60.26;103001.66;5113146;28;20054;-53
2022/04/28 10:05:41;;;;;;;18.17;6.18;;;;;;;10.74;59.21;103005.41;5112134;28;20035;-50
2022/04/28 10:08:28;;;;;;;14.50;5.80;;;;;;;10.80;59.18;102992.78;5118318;27;20109;-52
2022/04/28 10:11:06;;;;;;;13.00;5.60;;;;;;;10.88;58.75;103004.31;5120986;27;20043;-50
2022/04/28 10:13:34;;;;;;;15.35;6.45;;;;;;;10.88;57.62;103001.56;5139841;27;20093;-50
2022/04/28 10:16:08;;;;;;;23.55;6.65;;;;;;;10.95;58.99;103000.72;5126619;27;20569;-50
2022/04/28 10:19:01;;;;;;;12.50;6.10;;;;;;;11.00;58.65;102985.38;5133590;27;20036;-50
2022/04/28 10:21:40;;;;;;;15.55;6.07;;;;;;;11.02;57.77;102991.44;5111606;28;20036;-51
2022/04/28 10:33:20;;;;;;;17.85;6.38;;;;;;;11.04;58.23;102983.88;5113500;28;20054;-53
2022/04/28 10:35:53;;;;;;;15.10;6.93;;;;;;;11.11;57.22;102975.63;5112957;28;20413;-51
2022/04/28 10:38:31;;;;;;;11.93;5.53;;;;;;;11.14;59.89;102977.13;5113652;28;20039;-47
2022/04/28 10:41:05;;;;;;;15.65;6.25;;;;;;;11.26;59.79;102970.75;5095543;28;20043;-49
2022/04/28 10:43:32;;;;;;;16.27;6.68;;;;;;;11.35;58.24;102973.19;5112956;28;20404;-58
2022/04/28 10:46:24;;;;;;;15.00;6.38;;;;;;;11.34;57.78;102977.81;5113464;28;20050;-49
2022/04/28 10:48:59;;;;;;;16.05;6.95;;;;;;;11.33;57.85;102967.97;5101158;28;20040;-49
2022/04/28 10:51:30;;;;;;;16.35;7.20;;;;;;;11.33;57.85;102970.72;5113245;28;20054;-49
2022/04/28 10:54:03;;;;;;;;;;;;;;;11.33;57.69;102970.72;5133369;27;20043;-49
2022/04/28 10:56:56;;;;;;;14.52;7.15;;;;;;;11.40;57.95;102966.03;5115833;27;19920;-47
2022/04/28 10:59:31;;;;;;;20.42;7.70;;;;;;;11.54;56.99;102960.47;5113423;28;20039;-45
2022/04/28 11:02:13;;;;;;;16.23;7.68;;;;;;;11.57;56.81;102965.47;5099944;28;20120;-53
2022/04/28 11:05:11;;;;;;;16.30;7.07;;;;;;;11.59;57.00;102964.19;5112167;28;20043;-46
2022/04/28 11:07:46;;;;;;;15.25;6.88;;;;;;;11.60;57.16;102965.88;5089688;28;20065;-45
2022/04/28 11:10:14;;;;;;;14.73;6.50;;;;;;;11.70;56.68;102959.91;5116920;28;20431;-51
2022/04/28 11:12:42;;;;;;;12.45;5.72;;;;;;;11.78;57.50;102948.69;5117914;27;20468;-45
2022/04/28 11:15:13;;;;;;;12.88;5.97;;;;;;;11.80;56.32;102952.06;5117505;28;20042;-48
2022/04/28 11:17:44;;;;;;;13.93;6.07;;;;;;;11.81;56.70;102942.81;5099997;28;20044;-49
2022/04/28 11:20:18;;;;;;;18.50;6.97;;;;;;;11.86;57.55;102945.69;5115579;28;20039;-50
2022/04/28 11:23:06;;;;;;;15.05;6.20;;;;;;;11.83;55.76;102943.41;5115424;28;20040;-52
2022/04/28 11:25:35;;;;;;;15.80;6.57;;;;;;;11.88;54.23;102946.34;5117304;28;20573;-52
2022/04/28 11:28:09;;;;;;;15.52;6.50;;;;;;;11.91;55.20;102943.16;5115873;28;20516;-49
2022/04/28 11:30:41;;;;;;;15.35;6.22;;;;;;;11.98;54.52;102944.97;5117043;28;20047;-50
2022/04/28 11:33:13;;;;;;;14.02;5.88;;;;;;;12.03;54.15;102945.16;5114378;28;20065;-49
2022/04/28 11:35:40;;;;;;;15.90;6.90;;;;;;;12.01;53.91;102948.09;5117562;28;20047;-45
2022/04/28 11:38:09;;;;;;;14.27;6.18;;;;;;;12.04;54.61;102944.91;5117088;28;20130;-45
2022/04/28 11:40:44;;;;;;;15.15;6.35;;;;;;;12.12;53.86;102949.25;5117034;28;20181;-45
2022/04/28 11:43:12;;;;;;;14.05;5.90;;;;;;;12.14;53.55;102941.66;5094822;28;20123;-45
2022/04/28 11:45:40;;;;;;;16.83;6.53;;;;;;;12.24;52.83;102943.88;5096822;28;20040;-48
2022/04/28 11:48:08;;;;;;;13.27;5.07;;;;;;;12.20;52.85;102929.84;5096735;28;20036;-48
2022/04/28 11:50:37;;;;;;;13.25;5.47;;;;;;;12.23;53.77;102943.03;5096724;28;20040;-48
2022/04/28 11:53:12;;;;;;;16.05;6.25;;;;;;;12.24;53.12;102942.00;5109929;28;20101;-45
2022/04/28 11:55:40;;;;;;;11.65;5.03;;;;;;;12.28;54.02;102935.00;5105898;27;20078;-46
2022/04/28 11:58:12;;;;;;;14.82;6.45;;;;;;;12.44;53.40;102940.94;5136204;27;20039;-47
2022/04/28 12:00:42;;;;;;;17.42;6.22;;;;;;;12.50;53.31;102945.47;5135998;27;20399;-48
2022/04/28 12:03:21;;;;;;;14.32;6.15;;;;;;;12.50;51.67;102943.56;5123414;27;20093;-47
2022/04/28 12:05:52;;;;;;;19.70;6.30;;;;;;;12.44;51.60;102939.03;5116079;28;20044;-52
2022/04/28 12:08:24;;;;;;;16.70;6.68;;;;;;;12.45;52.47;102935.22;5116639;28;20036;-49
2022/04/28 12:19:19;;;;;;;;;;;;;;;12.76;51.79;102936.94;5095434;28;20032;-47
2022/04/28 12:19:22;;;;;;;24.55;6.30;;;;;;;12.77;51.60;102927.66;5095652;28;19920;-49
2022/04/28 12:21:50;;;;;;;13.60;5.28;;;;;;;12.85;51.24;102929.25;5105060;28;20039;-49
2022/04/28 12:24:18;;;;;;;21.67;7.35;;;;;;;12.85;51.05;102922.94;5116007;28;20445;-46
2022/04/28 12:26:47;;;;;;;13.02;5.20;;;;;;;12.89;52.31;102926.88;5116239;28;20489;-47
2022/04/28 12:29:17;;;;;;;13.38;5.93;;;;;;;13.06;51.03;102922.44;5097533;28;20097;-46
2022/04/28 12:31:47;;;;;;;14.65;6.13;;;;;;;13.15;51.33;102920.19;5114624;28;20503;-45
2022/04/28 12:34:20;;;;;;;12.85;6.25;;;;;;;13.14;50.82;102916.63;5114958;28;20140;-47